Pagrindinis puslapis
METAR-TAF:

METAR-TAF

Oro uostai :

Culdrose, Anglija

platuma: 50-05N, ilguma: 005-15W, Aukštis: 78 m

Dabartinis oras

Ataskaita buvo paskelbta 20 minutes, ne 19:50 UTC
Vėjas 6 kt iš Šiaurės/Šiaurės Rytų
Temperatūra 2°C
Drėgmė 87%
Slėgis 1046 hPa
Matomumas 10 km arba daugiau
nėra debesų žemiau 1500 m ir nėra kamuolinių lietaus debesų

METAR: EGDR 201950Z 03006KT CAVOK 02/00 Q1046 BLU NOSIG RMK BLU BLU

Laikas: 20:10 (20:10 UTC)

Prognozė

Ataskaita buvo paskelbta 6 valandos ir 42 minutes, ne 13:28 UTC
Prognozė galioja nuo 20 metu 15 UTC su 20 metu 24 UTC
Vėjas 5 kt iš Šiaurės/Šiaurės Rytų
Matomumas 10 km arba daugiau
nėra debesų žemiau 1500 m ir nėra kamuolinių lietaus debesų

TAF: EGDR 201328Z 2015/2024 02005KT CAVOK

Orai ataskaitas ir orų prognozės (METAR, TAF).

turimą stotys yra geltonos ir raudonos taškus žemėlapyje.

Perkelti pele per norėdami pamatyti stoties vardą.

Tada spustelėkite, norėdami matyti oro stebėjimo ir prognozės.

Norėdami pakeisti žemėlapį: spustelėkite ant žalios mygtukų su juodo kryžiaus žemyn,; žalią mygtuką su brūkšneliu, jei norite nutolinti; arba žalių rodyklių gretimoms žemėlapius.


METAR-TAF: